createdAt,value
2023-01-30T00:00:12.673Z,92.70
2023-01-30T00:02:41.793Z,92.80
2023-01-30T00:05:11.172Z,92.80
2023-01-30T00:07:41.688Z,92.90
2023-01-30T00:10:12.266Z,92.90
2023-01-30T00:12:41.489Z,92.90
2023-01-30T00:15:10.910Z,92.90
2023-01-30T00:17:39.879Z,93.00
2023-01-30T00:20:09.630Z,93.10
2023-01-30T00:22:39.690Z,93.30
2023-01-30T00:25:13.057Z,93.30
2023-01-30T00:27:42.150Z,93.40
2023-01-30T00:30:12.362Z,93.50
2023-01-30T00:32:41.304Z,93.70
2023-01-30T00:35:10.871Z,93.80
2023-01-30T00:37:39.797Z,93.90
2023-01-30T00:40:13.516Z,94.00
2023-01-30T00:42:59.829Z,94.10
2023-01-30T00:45:46.066Z,94.10
2023-01-30T00:48:15.338Z,94.10
2023-01-30T00:50:44.275Z,94.10
2023-01-30T00:53:16.195Z,94.00
2023-01-30T00:55:46.711Z,93.90
2023-01-30T00:58:17.007Z,94.00
2023-01-30T01:00:46.063Z,94.10
2023-01-30T01:03:15.255Z,94.00
2023-01-30T01:05:45.189Z,94.20
2023-01-30T01:08:16.267Z,94.20
2023-01-30T01:10:47.119Z,94.30
2023-01-30T01:13:16.223Z,94.30
2023-01-30T01:15:45.133Z,94.40
2023-01-30T01:18:14.140Z,94.40
2023-01-30T01:20:43.181Z,94.40
2023-01-30T01:23:12.563Z,94.40
2023-01-30T01:25:41.736Z,94.40
2023-01-30T01:28:12.108Z,94.40
2023-01-30T01:30:41.095Z,94.40
2023-01-30T01:33:12.824Z,94.50
2023-01-30T01:35:42.738Z,94.50
2023-01-30T01:38:11.959Z,94.60
2023-01-30T01:40:59.512Z,94.60
2023-01-30T01:43:35.117Z,94.60
2023-01-30T01:46:09.489Z,94.60
2023-01-30T01:48:42.512Z,94.60
2023-01-30T01:51:17.776Z,94.60
2023-01-30T01:54:10.412Z,94.40
2023-01-30T01:56:43.170Z,94.00
2023-01-30T01:59:21.145Z,93.90
2023-01-30T02:01:51.060Z,93.90
2023-01-30T02:04:40.335Z,93.80
2023-01-30T02:07:10.019Z,93.90
2023-01-30T02:09:39.489Z,94.00
2023-01-30T02:12:08.804Z,94.10
2023-01-30T02:14:39.795Z,94.20
2023-01-30T02:17:08.985Z,94.30
2023-01-30T02:19:50.712Z,94.30
2023-01-30T02:22:54.855Z,94.30
2023-01-30T02:25:42.321Z,94.40
2023-01-30T02:28:40.794Z,94.30
2023-01-30T02:31:22.733Z,94.60
2023-01-30T02:34:02.769Z,94.80
2023-01-30T02:36:43.040Z,94.90
2023-01-30T02:39:20.923Z,95.00
2023-01-30T02:42:01.469Z,95.00
2023-01-30T02:44:39.086Z,95.00
2023-01-30T02:47:14.669Z,94.90
2023-01-30T02:49:48.499Z,94.90
2023-01-30T02:52:18.627Z,94.90
2023-01-30T02:54:48.162Z,95.00
2023-01-30T02:57:23.000Z,95.00
2023-01-30T02:59:58.472Z,95.20
2023-01-30T03:02:51.071Z,95.30
2023-01-30T03:05:39.573Z,95.40
2023-01-30T03:08:19.929Z,95.50
2023-01-30T03:10:54.617Z,95.50
2023-01-30T03:13:34.894Z,95.60
2023-01-30T03:16:11.364Z,95.70
2023-01-30T03:18:44.263Z,95.70
2023-01-30T03:21:15.619Z,95.70
2023-01-30T03:23:47.230Z,95.70
2023-01-30T03:26:19.660Z,95.80
2023-01-30T03:28:51.602Z,95.90
2023-01-30T03:31:22.059Z,96.00
2023-01-30T03:33:52.596Z,96.20
2023-01-30T03:36:22.108Z,96.20
2023-01-30T03:38:53.245Z,96.30
2023-01-30T03:41:22.789Z,96.40
2023-01-30T03:43:51.740Z,96.50
2023-01-30T03:46:20.901Z,96.60
2023-01-30T03:48:51.971Z,96.60
2023-01-30T03:51:21.068Z,96.70
2023-01-30T03:53:50.553Z,96.60
2023-01-30T03:56:19.490Z,96.60
2023-01-30T03:58:48.605Z,96.60
2023-01-30T04:01:20.440Z,96.60
2023-01-30T04:03:49.909Z,96.70
2023-01-30T04:06:20.438Z,96.80
2023-01-30T04:08:49.476Z,96.80
2023-01-30T04:11:30.446Z,96.90
2023-01-30T04:13:59.507Z,97.00
2023-01-30T04:16:29.525Z,97.10
2023-01-30T04:19:13.586Z,97.20
2023-01-30T04:21:44.815Z,97.20
2023-01-30T04:24:14.436Z,97.10
2023-01-30T04:26:43.574Z,97.10
2023-01-30T04:29:12.764Z,97.20
2023-01-30T04:31:42.667Z,97.20
2023-01-30T04:34:20.540Z,97.20
2023-01-30T04:36:51.223Z,97.20
2023-01-30T04:39:21.278Z,97.10
2023-01-30T04:41:51.461Z,97.00
2023-01-30T04:44:21.280Z,96.90
2023-01-30T04:46:56.128Z,97.00
2023-01-30T04:49:25.236Z,97.00
2023-01-30T04:51:57.113Z,97.00
2023-01-30T04:54:26.216Z,97.00
2023-01-30T04:56:55.184Z,97.00
2023-01-30T04:59:25.693Z,97.10
2023-01-30T05:01:56.137Z,97.10
2023-01-30T05:04:25.111Z,97.00
2023-01-30T05:06:54.120Z,97.00
2023-01-30T05:09:24.660Z,97.00
2023-01-30T05:11:53.653Z,97.00
2023-01-30T05:14:22.592Z,97.00
2023-01-30T05:16:51.645Z,96.90
2023-01-30T05:19:20.809Z,96.50
2023-01-30T05:21:50.029Z,96.30
2023-01-30T05:24:19.123Z,96.30
2023-01-30T05:26:50.067Z,96.20
2023-01-30T05:29:19.131Z,96.30
2023-01-30T05:31:48.355Z,96.30
2023-01-30T05:34:17.379Z,96.40
2023-01-30T05:36:46.432Z,96.50
2023-01-30T05:39:15.461Z,96.70
2023-01-30T05:41:44.409Z,96.70
2023-01-30T05:44:14.974Z,96.80
2023-01-30T05:46:44.195Z,96.90
2023-01-30T05:49:13.085Z,96.80
2023-01-30T05:51:41.996Z,96.70
2023-01-30T05:54:11.084Z,96.60
2023-01-30T05:56:40.049Z,96.50
2023-01-30T05:59:09.148Z,96.40
2023-01-30T06:01:39.565Z,96.40
2023-01-30T06:04:27.136Z,96.40
2023-01-30T06:06:56.152Z,96.40
2023-01-30T06:09:25.137Z,96.50
2023-01-30T06:11:55.871Z,96.40
2023-01-30T06:14:24.901Z,96.40
2023-01-30T06:16:55.480Z,96.40
2023-01-30T06:19:24.638Z,96.50
2023-01-30T06:21:53.532Z,96.50
2023-01-30T06:24:22.421Z,96.60
2023-01-30T06:26:51.519Z,96.30
2023-01-30T06:29:20.533Z,96.20
2023-01-30T06:31:49.488Z,96.20
2023-01-30T06:34:19.998Z,96.10
2023-01-30T06:37:07.647Z,96.00
2023-01-30T06:39:36.690Z,95.80
2023-01-30T06:42:06.117Z,95.60
2023-01-30T06:44:35.009Z,95.50
2023-01-30T06:47:04.007Z,95.40
2023-01-30T06:49:34.480Z,95.20
2023-01-30T06:52:03.542Z,95.00
2023-01-30T06:54:32.547Z,95.10
2023-01-30T06:57:01.546Z,95.00
2023-01-30T06:59:30.808Z,94.90
2023-01-30T07:01:59.789Z,94.90
2023-01-30T07:04:28.817Z,94.80
2023-01-30T07:06:59.458Z,94.70
2023-01-30T07:09:53.242Z,94.60
2023-01-30T07:12:31.314Z,94.30
2023-01-30T07:15:00.610Z,94.10
2023-01-30T07:17:29.573Z,93.80
2023-01-30T07:19:58.545Z,93.70
2023-01-30T07:22:28.929Z,93.20
2023-01-30T07:24:57.934Z,93.00
2023-01-30T07:27:26.941Z,93.20
2023-01-30T07:29:55.936Z,92.90
2023-01-30T07:32:24.884Z,93.10
2023-01-30T07:34:53.888Z,92.90
2023-01-30T07:37:22.835Z,92.50
2023-01-30T07:39:53.213Z,92.40
2023-01-30T07:42:22.214Z,92.30
2023-01-30T07:44:51.223Z,92.00
2023-01-30T07:47:20.779Z,92.30
2023-01-30T07:49:49.671Z,92.10
2023-01-30T07:52:18.660Z,91.60
2023-01-30T07:54:47.583Z,90.90
2023-01-30T07:57:18.060Z,90.50
2023-01-30T07:59:47.065Z,90.50
2023-01-30T08:02:15.950Z,90.40
2023-01-30T08:04:45.236Z,90.10
2023-01-30T08:07:14.419Z,90.20
2023-01-30T08:09:43.383Z,90.00
2023-01-30T08:12:12.506Z,89.50
2023-01-30T08:14:42.865Z,90.10
2023-01-30T08:17:11.978Z,90.10
2023-01-30T08:19:40.998Z,90.40
2023-01-30T08:22:09.958Z,90.20
2023-01-30T08:24:39.994Z,90.30
2023-01-30T08:27:09.125Z,90.10
2023-01-30T08:29:38.062Z,90.10
2023-01-30T08:32:08.657Z,89.90
2023-01-30T08:34:37.656Z,89.30
2023-01-30T08:37:06.683Z,88.50
2023-01-30T08:39:37.215Z,88.30
2023-01-30T08:42:06.563Z,88.70
2023-01-30T08:44:35.424Z,87.40
2023-01-30T08:47:05.173Z,87.20
2023-01-30T08:49:35.588Z,87.20
2023-01-30T08:52:04.726Z,86.80
2023-01-30T08:54:33.640Z,86.40
2023-01-30T08:57:02.590Z,85.90
2023-01-30T08:59:31.724Z,85.40
2023-01-30T09:02:00.858Z,85.10
2023-01-30T09:04:31.389Z,85.10
2023-01-30T09:07:02.007Z,84.90
2023-01-30T09:09:31.080Z,85.00
2023-01-30T09:11:59.970Z,84.70
2023-01-30T09:14:29.009Z,84.60
2023-01-30T09:16:58.221Z,83.60
2023-01-30T09:19:28.887Z,83.00
2023-01-30T09:21:58.367Z,82.80
2023-01-30T09:24:28.793Z,82.50
2023-01-30T09:26:59.190Z,81.90
2023-01-30T09:29:28.961Z,81.90
2023-01-30T09:31:59.055Z,82.80
2023-01-30T09:34:29.131Z,81.70
2023-01-30T09:37:16.992Z,80.90
2023-01-30T09:39:47.406Z,79.60
2023-01-30T09:42:42.936Z,78.70
2023-01-30T09:45:39.223Z,77.80
2023-01-30T09:48:18.296Z,78.00
2023-01-30T09:51:08.631Z,77.90
2023-01-30T09:53:51.039Z,77.10
2023-01-30T09:56:21.723Z,77.00
2023-01-30T09:58:56.175Z,77.30
2023-01-30T10:01:31.355Z,77.50
2023-01-30T10:04:10.794Z,76.60
2023-01-30T10:06:53.596Z,75.80
2023-01-30T10:09:34.920Z,76.00
2023-01-30T10:12:22.255Z,75.40
2023-01-30T10:15:09.125Z,74.70
2023-01-30T10:17:52.436Z,74.30
2023-01-30T10:20:32.188Z,73.10
2023-01-30T10:23:17.617Z,72.80
2023-01-30T10:25:50.668Z,71.80
2023-01-30T10:28:26.980Z,70.70
2023-01-30T10:31:03.760Z,70.80
2023-01-30T10:33:36.319Z,70.60
2023-01-30T10:36:11.657Z,70.40
2023-01-30T10:38:47.784Z,70.20
2023-01-30T10:41:25.447Z,70.50
2023-01-30T10:44:01.281Z,70.20
2023-01-30T10:46:49.164Z,70.40
2023-01-30T10:49:21.429Z,69.60
2023-01-30T10:51:59.539Z,68.50
2023-01-30T10:54:34.753Z,67.90
2023-01-30T10:57:13.530Z,68.50
2023-01-30T10:59:54.607Z,68.60
2023-01-30T11:02:27.077Z,68.70
2023-01-30T11:05:00.736Z,68.20
2023-01-30T11:07:32.558Z,67.90
2023-01-30T11:10:02.281Z,68.00
2023-01-30T11:12:31.387Z,67.00
2023-01-30T11:15:04.350Z,67.00
2023-01-30T11:17:37.791Z,67.10
2023-01-30T11:20:14.755Z,66.90
2023-01-30T11:22:52.775Z,66.60
2023-01-30T11:25:24.358Z,66.90
2023-01-30T11:28:01.446Z,67.30
2023-01-30T11:30:35.683Z,68.30
2023-01-30T11:33:12.263Z,66.70
2023-01-30T11:35:53.793Z,65.80
2023-01-30T11:38:25.539Z,65.50
2023-01-30T11:41:06.462Z,65.70
2023-01-30T11:43:39.676Z,65.80
2023-01-30T11:46:13.445Z,66.20
2023-01-30T11:49:02.736Z,66.10
2023-01-30T11:51:38.641Z,65.90
2023-01-30T11:54:32.078Z,66.00
2023-01-30T11:57:04.916Z,64.80
2023-01-30T11:59:58.946Z,63.70
2023-01-30T12:02:35.149Z,63.90
2023-01-30T12:05:06.653Z,64.10
2023-01-30T12:07:37.700Z,64.10
2023-01-30T12:10:28.611Z,64.30
2023-01-30T12:13:00.297Z,64.00
2023-01-30T12:15:31.362Z,64.40
2023-01-30T12:18:12.187Z,65.00
2023-01-30T12:20:50.891Z,65.30
2023-01-30T12:23:28.860Z,65.40
2023-01-30T12:26:03.815Z,65.60
2023-01-30T12:28:40.290Z,65.90
2023-01-30T12:31:15.413Z,65.60
2023-01-30T12:33:45.944Z,65.80
2023-01-30T12:36:26.552Z,65.50
2023-01-30T12:39:05.537Z,66.70
2023-01-30T12:41:46.135Z,67.80
2023-01-30T12:44:31.023Z,68.70
2023-01-30T12:47:23.748Z,69.20
2023-01-30T12:50:08.155Z,69.60
2023-01-30T12:53:02.934Z,69.80
2023-01-30T12:55:46.033Z,70.00
2023-01-30T12:58:23.386Z,70.40
2023-01-30T13:01:18.084Z,70.70
2023-01-30T13:03:58.632Z,71.20
2023-01-30T13:06:56.965Z,71.20
2023-01-30T13:09:49.454Z,71.30
2023-01-30T13:12:27.634Z,71.00
2023-01-30T13:15:05.065Z,71.20
2023-01-30T13:17:47.224Z,71.40
2023-01-30T13:20:32.083Z,71.60
2023-01-30T13:23:28.140Z,72.20
2023-01-30T13:26:02.743Z,72.10
2023-01-30T13:28:37.787Z,72.00
2023-01-30T13:31:11.922Z,72.10
2023-01-30T13:33:45.698Z,72.40
2023-01-30T13:36:19.328Z,72.70
2023-01-30T13:39:00.143Z,73.00
2023-01-30T13:41:35.279Z,73.30
2023-01-30T13:44:23.768Z,73.50
2023-01-30T13:46:59.985Z,73.60
2023-01-30T13:49:46.743Z,73.70
2023-01-30T13:52:35.338Z,73.90
2023-01-30T13:55:22.012Z,74.00
2023-01-30T13:57:57.094Z,74.10
2023-01-30T14:00:32.248Z,73.90
2023-01-30T14:03:32.774Z,73.90
2023-01-30T14:06:32.508Z,74.20
2023-01-30T14:09:04.185Z,74.50
2023-01-30T14:11:49.742Z,74.70
2023-01-30T14:14:34.043Z,74.80
2023-01-30T14:17:15.776Z,74.90
2023-01-30T14:19:59.279Z,75.30
2023-01-30T14:22:37.256Z,75.50
2023-01-30T14:25:42.047Z,75.70
2023-01-30T14:28:50.147Z,75.80
2023-01-30T14:31:55.431Z,75.80
2023-01-30T14:34:49.992Z,75.90
2023-01-30T14:38:16.868Z,76.20
2023-01-30T14:41:11.241Z,76.40
2023-01-30T14:43:54.123Z,76.40
2023-01-30T14:46:54.313Z,76.70
2023-01-30T14:49:36.941Z,77.10
2023-01-30T14:52:07.047Z,77.30
2023-01-30T14:54:42.959Z,77.70
2023-01-30T14:57:26.170Z,78.40
2023-01-30T15:00:17.069Z,78.90
2023-01-30T15:03:02.473Z,79.10
2023-01-30T15:05:46.115Z,79.50
2023-01-30T15:08:24.259Z,79.90
2023-01-30T15:11:10.891Z,80.30
2023-01-30T15:14:00.145Z,80.80
2023-01-30T15:16:51.092Z,81.10
2023-01-30T15:19:52.266Z,81.10
2023-01-30T15:22:34.092Z,81.20
2023-01-30T15:25:27.721Z,81.20
2023-01-30T15:28:28.183Z,81.50
2023-01-30T15:31:10.211Z,82.00
2023-01-30T15:33:46.823Z,82.30
2023-01-30T15:36:36.272Z,82.50
2023-01-30T15:39:08.258Z,83.00
2023-01-30T15:41:42.680Z,83.40
2023-01-30T15:44:38.067Z,83.60
2023-01-30T15:47:22.674Z,83.40
2023-01-30T15:49:58.648Z,83.30
2023-01-30T15:52:37.642Z,82.80
2023-01-30T15:55:09.824Z,82.80
2023-01-30T15:57:41.379Z,82.90
2023-01-30T16:00:21.248Z,83.00
2023-01-30T16:02:50.337Z,83.00
2023-01-30T16:05:23.637Z,82.50
2023-01-30T16:07:56.855Z,82.40
2023-01-30T16:10:29.674Z,82.50
2023-01-30T16:13:00.528Z,82.70
2023-01-30T16:15:33.428Z,82.90
2023-01-30T16:18:06.264Z,83.10
2023-01-30T16:20:55.233Z,83.10
2023-01-30T16:23:33.212Z,83.10
2023-01-30T16:26:05.019Z,83.60
2023-01-30T16:28:34.701Z,84.10
2023-01-30T16:31:06.565Z,84.30
2023-01-30T16:33:37.389Z,84.70
2023-01-30T16:36:08.867Z,84.90
2023-01-30T16:38:40.738Z,85.20
2023-01-30T16:41:31.139Z,85.30
2023-01-30T16:44:19.772Z,85.40
2023-01-30T16:46:52.011Z,85.50
2023-01-30T16:49:24.156Z,85.60
2023-01-30T16:52:02.546Z,85.90
2023-01-30T16:54:33.214Z,86.10
2023-01-30T16:57:04.538Z,86.30
2023-01-30T16:59:35.166Z,86.40
2023-01-30T17:02:06.229Z,86.40
2023-01-30T17:04:41.466Z,86.70
2023-01-30T17:07:35.541Z,86.90
2023-01-30T17:10:04.637Z,87.20
2023-01-30T17:12:44.081Z,87.80
2023-01-30T17:15:33.230Z,87.40
2023-01-30T17:18:02.577Z,87.60
2023-01-30T17:20:41.359Z,87.50
2023-01-30T17:23:17.368Z,87.70
2023-01-30T17:25:50.069Z,87.80
2023-01-30T17:28:24.457Z,87.80
2023-01-30T17:30:53.661Z,87.80
2023-01-30T17:33:22.729Z,87.80
2023-01-30T17:35:51.712Z,87.70
2023-01-30T17:38:20.888Z,87.80
2023-01-30T17:40:50.326Z,88.10
2023-01-30T17:43:20.865Z,88.20
2023-01-30T17:45:50.036Z,88.40
2023-01-30T17:48:19.041Z,88.40
2023-01-30T17:50:48.064Z,88.40
2023-01-30T17:53:17.094Z,88.30
2023-01-30T17:55:46.020Z,88.20
2023-01-30T17:58:18.497Z,88.40
2023-01-30T18:00:48.913Z,88.50
2023-01-30T18:03:17.952Z,88.80
2023-01-30T18:05:47.227Z,88.90
2023-01-30T18:08:16.158Z,89.20
2023-01-30T18:10:45.159Z,89.30
2023-01-30T18:13:14.105Z,89.30
2023-01-30T18:15:43.021Z,89.80
2023-01-30T18:18:16.291Z,90.10
2023-01-30T18:20:46.810Z,90.40
2023-01-30T18:23:16.668Z,90.50
2023-01-30T18:25:45.705Z,90.70
2023-01-30T18:28:14.758Z,90.70
2023-01-30T18:30:43.962Z,90.80
2023-01-30T18:33:14.434Z,90.80
2023-01-30T18:35:43.511Z,90.90
2023-01-30T18:38:13.697Z,90.90
2023-01-30T18:40:42.732Z,91.10
2023-01-30T18:43:11.645Z,91.30
2023-01-30T18:45:40.611Z,91.50
2023-01-30T18:48:10.539Z,91.70
2023-01-30T18:50:41.150Z,92.00
2023-01-30T18:53:10.341Z,92.20
2023-01-30T18:55:39.289Z,92.30
2023-01-30T18:58:08.367Z,92.40
2023-01-30T19:00:37.432Z,92.40
2023-01-30T19:03:06.318Z,92.60
2023-01-30T19:05:37.906Z,92.80
2023-01-30T19:08:26.872Z,93.00
2023-01-30T19:10:55.932Z,93.10
2023-01-30T19:13:36.864Z,93.20
2023-01-30T19:16:06.607Z,93.30
2023-01-30T19:18:36.500Z,93.40
2023-01-30T19:21:05.975Z,93.50
2023-01-30T19:23:36.380Z,93.70
2023-01-30T19:26:05.785Z,93.90
2023-01-30T19:28:34.732Z,94.00
2023-01-30T19:31:07.933Z,94.10
2023-01-30T19:33:37.130Z,94.30
2023-01-30T19:36:10.901Z,94.40
2023-01-30T19:38:41.420Z,94.50
2023-01-30T19:41:12.997Z,94.70
2023-01-30T19:43:42.793Z,94.90
2023-01-30T19:46:12.600Z,95.00
2023-01-30T19:48:42.213Z,95.10
2023-01-30T19:51:14.579Z,95.30
2023-01-30T19:53:46.565Z,95.50
2023-01-30T19:56:15.869Z,95.70
2023-01-30T19:58:45.096Z,95.80
2023-01-30T20:01:15.870Z,96.00
2023-01-30T20:03:44.975Z,96.20
2023-01-30T20:06:16.196Z,96.40
2023-01-30T20:08:49.273Z,96.60
2023-01-30T20:11:21.275Z,96.80
2023-01-30T20:13:50.570Z,97.00
2023-01-30T20:16:21.519Z,97.10
2023-01-30T20:18:55.562Z,97.30
2023-01-30T20:21:26.077Z,97.40
2023-01-30T20:23:57.974Z,97.50
2023-01-30T20:26:48.522Z,97.90
2023-01-30T20:29:18.441Z,97.60
2023-01-30T20:31:48.273Z,97.90
2023-01-30T20:34:18.673Z,98.10
2023-01-30T20:36:47.967Z,98.40
2023-01-30T20:39:21.183Z,98.60
2023-01-30T20:41:50.661Z,98.90
2023-01-30T20:44:20.779Z,99.10
2023-01-30T20:46:51.140Z,99.20
2023-01-30T20:49:21.632Z,99.50
2023-01-30T20:51:52.946Z,99.70
2023-01-30T20:54:24.657Z,99.90
2023-01-30T20:56:55.303Z,99.90
2023-01-30T20:59:27.476Z,99.90
2023-01-30T21:01:56.631Z,99.90
2023-01-30T21:04:25.801Z,99.90
2023-01-30T21:06:54.873Z,99.90
2023-01-30T21:09:25.713Z,99.90
2023-01-30T21:11:55.592Z,99.90
2023-01-30T21:14:26.611Z,99.90
2023-01-30T21:16:55.897Z,99.90
2023-01-30T21:19:24.915Z,99.90
2023-01-30T21:21:55.386Z,99.90
2023-01-30T21:24:28.448Z,99.90
2023-01-30T21:26:58.253Z,99.90
2023-01-30T21:29:28.920Z,99.90
2023-01-30T21:31:58.870Z,99.90
2023-01-30T21:34:28.175Z,99.90
2023-01-30T21:37:14.252Z,99.90
2023-01-30T21:40:02.076Z,99.90
2023-01-30T21:42:48.584Z,99.90
2023-01-30T21:45:21.013Z,99.90
2023-01-30T21:47:56.805Z,99.90
2023-01-30T21:50:29.281Z,99.90
2023-01-30T21:53:06.565Z,99.90
2023-01-30T21:55:38.277Z,99.90
2023-01-30T21:58:07.288Z,99.90
2023-01-30T22:00:36.794Z,99.90
2023-01-30T22:03:06.057Z,99.90
2023-01-30T22:05:36.721Z,99.90
2023-01-30T22:08:06.501Z,99.90
2023-01-30T22:10:35.434Z,99.90
2023-01-30T22:13:05.865Z,99.90
2023-01-30T22:15:35.262Z,99.90
2023-01-30T22:18:04.449Z,99.90
2023-01-30T22:20:33.450Z,99.90
2023-01-30T22:23:02.367Z,99.90
2023-01-30T22:25:31.372Z,99.90
2023-01-30T22:28:00.288Z,99.90
2023-01-30T22:30:30.668Z,99.90
2023-01-30T22:32:59.746Z,99.90
2023-01-30T22:35:29.214Z,99.90
2023-01-30T22:37:58.199Z,99.90
2023-01-30T22:40:27.359Z,99.90
2023-01-30T22:42:56.271Z,99.90
2023-01-30T22:45:25.327Z,99.90
2023-01-30T22:47:55.719Z,99.90
2023-01-30T22:50:24.756Z,99.90
2023-01-30T22:52:53.849Z,99.90
2023-01-30T22:55:22.892Z,99.90
2023-01-30T22:57:52.181Z,99.90
2023-01-30T23:00:21.457Z,99.90
2023-01-30T23:02:50.520Z,99.90
2023-01-30T23:05:21.531Z,99.90
2023-01-30T23:07:50.787Z,99.90
2023-01-30T23:10:19.836Z,99.90
2023-01-30T23:13:06.188Z,99.90
2023-01-30T23:15:35.711Z,99.90
2023-01-30T23:18:22.101Z,99.90
2023-01-30T23:20:52.480Z,99.90
2023-01-30T23:23:21.472Z,99.90
2023-01-30T23:25:50.548Z,99.90
2023-01-30T23:28:19.514Z,99.90
2023-01-30T23:30:48.439Z,99.90
2023-01-30T23:33:17.556Z,99.90
2023-01-30T23:35:46.565Z,99.90
2023-01-30T23:38:16.940Z,99.90
2023-01-30T23:40:46.497Z,99.90
2023-01-30T23:43:15.721Z,99.90
2023-01-30T23:45:45.067Z,99.90
2023-01-30T23:48:14.179Z,99.90
2023-01-30T23:50:43.488Z,99.90
2023-01-30T23:53:12.874Z,99.90
2023-01-30T23:55:52.540Z,99.90
2023-01-30T23:58:21.720Z,99.90
